Time;durP1;ratioP1;P1;durP2;ratioP2;P2;SDS_P1;SDS_P2;PMS_P1;PMS_P2;Temp;Humidity;BMP_temperature;BMP_pressure;BME280_temperature;BME280_humidity;BME280_pressure;Samples;Min_cycle;Max_cycle;Signal;HPM_P1;HPM_P2
2023/04/12 00:01:27;;;;;;;5.13;2.90;;;3.60;99.90;;;;;;4174014;28;20460;-74
2023/04/12 00:03:32;;;;;;;4.80;2.47;;;3.60;99.90;;;;;;4171204;28;20536;-75
2023/04/12 00:05:37;;;;;;;6.63;2.83;;;3.60;99.90;;;;;;4171045;28;20480;-75
2023/04/12 00:07:39;;;;;;;5.93;2.50;;;3.60;99.90;;;;;;4172911;28;20487;-75
2023/04/12 00:09:41;;;;;;;5.77;2.90;;;3.60;99.90;;;;;;4171723;28;20476;-75
2023/04/12 00:11:43;;;;;;;6.07;2.57;;;3.60;99.90;;;;;;4170628;28;21384;-75
2023/04/12 00:13:45;;;;;;;4.63;2.47;;;3.50;99.90;;;;;;4173130;28;20483;-74
2023/04/12 00:15:47;;;;;;;5.07;2.33;;;3.60;99.90;;;;;;4172059;28;20933;-75
2023/04/12 00:17:49;;;;;;;4.27;2.57;;;3.50;99.90;;;;;;4172287;28;20464;-75
2023/04/12 00:19:51;;;;;;;6.00;3.10;;;3.50;99.90;;;;;;4171309;28;20466;-75
2023/04/12 00:21:55;;;;;;;5.67;2.50;;;3.50;99.90;;;;;;4171294;28;20437;-74
2023/04/12 00:23:57;;;;;;;5.70;2.53;;;3.50;99.90;;;;;;4173480;28;20864;-75
2023/04/12 00:25:59;;;;;;;6.10;2.47;;;3.50;99.90;;;;;;4169135;28;20485;-75
2023/04/12 00:28:01;;;;;;;3.03;2.27;;;3.50;99.90;;;;;;4171120;28;20571;-74
2023/04/12 00:30:04;;;;;;;4.63;2.70;;;3.50;99.90;;;;;;4173635;28;20485;-74
2023/04/12 00:32:06;;;;;;;4.10;2.50;;;3.50;99.90;;;;;;4168092;28;20453;-75
2023/04/12 00:34:07;;;;;;;3.57;2.23;;;3.50;99.90;;;;;;4171702;28;20518;-74
2023/04/12 00:36:10;;;;;;;4.23;2.50;;;3.40;99.90;;;;;;4171897;28;21002;-75
2023/04/12 00:38:14;;;;;;;4.97;2.67;;;3.40;99.90;;;;;;4169366;28;21061;-74
2023/04/12 00:40:16;;;;;;;3.70;2.37;;;3.40;99.90;;;;;;4171026;28;20453;-75
2023/04/12 00:42:18;;;;;;;4.80;2.47;;;3.40;99.90;;;;;;4174656;28;20457;-74
2023/04/12 00:44:20;;;;;;;5.93;2.90;;;3.40;99.90;;;;;;4173361;28;20573;-75
2023/04/12 00:46:22;;;;;;;3.17;2.10;;;3.30;99.90;;;;;;4173024;28;20481;-74
2023/04/12 00:48:25;;;;;;;5.37;2.20;;;3.30;99.90;;;;;;4170748;28;20496;-73
2023/04/12 00:50:27;;;;;;;4.80;2.57;;;3.30;99.90;;;;;;4173115;28;20547;-75
2023/04/12 00:52:33;;;;;;;6.17;2.77;;;3.30;99.90;;;;;;4167457;28;20535;-74
2023/04/12 00:54:36;;;;;;;4.87;2.50;;;3.30;99.90;;;;;;4172246;28;20966;-75
2023/04/12 00:56:39;;;;;;;4.17;2.60;;;3.30;99.90;;;;;;4174446;28;20943;-75
2023/04/12 00:58:41;;;;;;;4.07;2.67;;;3.20;99.90;;;;;;4171968;28;20453;-75
2023/04/12 01:00:48;;;;;;;5.60;2.70;;;3.30;99.90;;;;;;4171482;28;20452;-75
2023/04/12 01:02:51;;;;;;;4.80;2.80;;;3.20;99.90;;;;;;4174654;28;20455;-74
2023/04/12 01:04:53;;;;;;;5.17;2.90;;;3.20;99.90;;;;;;4172537;28;21013;-75
2023/04/12 01:07:08;;;;;;;5.40;3.10;;;3.30;99.90;;;;;;4172318;28;20473;-74
2023/04/12 01:09:20;;;;;;;7.13;2.43;;;3.20;99.90;;;;;;4176157;28;20449;-74
2023/04/12 01:11:31;;;;;;;6.23;2.70;;;3.20;99.90;;;;;;4172591;28;20473;-74
2023/04/12 01:13:39;;;;;;;4.67;2.50;;;3.20;99.90;;;;;;4173374;28;20562;-74
2023/04/12 01:15:53;;;;;;;5.37;3.00;;;3.20;99.90;;;;;;4176082;28;20510;-74
2023/04/12 01:18:01;;;;;;;4.63;2.57;;;3.20;99.90;;;;;;4170170;28;20513;-75
2023/04/12 01:20:12;;;;;;;5.17;2.50;;;3.20;99.90;;;;;;4172701;28;20512;-75
2023/04/12 01:22:26;;;;;;;6.57;3.23;;;3.20;99.90;;;;;;4172850;28;21900;-74
2023/04/12 01:24:37;;;;;;;5.30;2.83;;;3.10;99.90;;;;;;4175722;28;20543;-75
2023/04/12 01:26:44;;;;;;;4.07;2.70;;;3.10;99.90;;;;;;4172189;28;20448;-75
2023/04/12 01:28:52;;;;;;;5.50;2.83;;;3.10;99.90;;;;;;4174271;28;20475;-75
2023/04/12 01:30:54;;;;;;;4.37;2.90;;;3.10;99.90;;;;;;4172428;28;20454;-74
2023/04/12 01:33:00;;;;;;;4.93;2.87;;;3.10;99.90;;;;;;4175437;28;20508;-75
2023/04/12 01:35:05;;;;;;;5.60;3.20;;;3.10;99.90;;;;;;4175036;28;20441;-74
2023/04/12 01:37:09;;;;;;;7.13;2.90;;;3.10;99.90;;;;;;4176151;28;20990;-73
2023/04/12 01:39:11;;;;;;;5.23;3.20;;;3.10;99.90;;;;;;4173888;28;20464;-74
2023/04/12 01:41:14;;;;;;;7.97;3.10;;;3.10;99.90;;;;;;4170530;28;20473;-75
2023/04/12 01:43:16;;;;;;;7.63;2.83;;;3.10;99.90;;;;;;4176351;28;20457;-75
2023/04/12 01:45:19;;;;;;;6.60;2.93;;;3.00;99.90;;;;;;4176303;28;20469;-75
2023/04/12 01:47:21;;;;;;;7.60;3.20;;;3.00;99.90;;;;;;4177290;28;20476;-75
2023/04/12 01:49:26;;;;;;;6.27;2.70;;;3.00;99.90;;;;;;4174381;28;20457;-74
2023/04/12 01:51:39;;;;;;;6.70;2.63;;;3.10;99.90;;;;;;4175633;28;20475;-75
2023/04/12 01:53:49;;;;;;;4.07;2.60;;;3.10;99.90;;;;;;4174280;28;20716;-75
2023/04/12 01:55:52;;;;;;;5.87;3.10;;;3.10;99.90;;;;;;4171144;28;20497;-75
2023/04/12 01:57:54;;;;;;;9.70;3.17;;;3.10;99.90;;;;;;4176757;28;20485;-74
2023/04/12 01:59:58;;;;;;;5.43;2.53;;;3.10;99.90;;;;;;4175686;28;20536;-75
2023/04/12 02:02:02;;;;;;;5.37;2.60;;;3.10;99.90;;;;;;4173107;28;20496;-74
2023/04/12 02:04:06;;;;;;;7.57;2.63;;;3.10;99.90;;;;;;4175117;28;20480;-75
2023/04/12 02:06:09;;;;;;;6.63;2.60;;;3.10;99.90;;;;;;4174782;28;20458;-75
2023/04/12 02:08:12;;;;;;;5.17;2.60;;;3.10;99.90;;;;;;4173726;28;20499;-75
2023/04/12 02:10:14;;;;;;;3.73;2.23;;;3.10;99.90;;;;;;4174219;28;20457;-75
2023/04/12 02:12:16;;;;;;;5.57;2.77;;;3.10;99.90;;;;;;4174493;28;20452;-75
2023/04/12 02:14:19;;;;;;;4.77;2.63;;;3.10;99.90;;;;;;4171530;28;20495;-74
2023/04/12 02:16:21;;;;;;;4.50;2.40;;;3.10;99.90;;;;;;4173135;28;20523;-74
2023/04/12 02:18:25;;;;;;;5.97;2.33;;;3.00;99.90;;;;;;4175979;28;20479;-74
2023/04/12 02:20:27;;;;;;;6.03;2.87;;;3.00;99.90;;;;;;4172401;28;20488;-74
2023/04/12 02:22:29;;;;;;;4.30;2.50;;;3.10;99.90;;;;;;4174544;28;20472;-75
2023/04/12 02:24:31;;;;;;;8.50;2.47;;;3.10;99.90;;;;;;4175121;28;20437;-74
2023/04/12 02:26:33;;;;;;;6.40;2.80;;;3.10;99.90;;;;;;4172522;28;20962;-75
2023/04/12 02:28:36;;;;;;;5.23;2.40;;;3.10;99.90;;;;;;4169270;28;20500;-74
2023/04/12 02:30:40;;;;;;;4.50;2.27;;;3.10;99.90;;;;;;4173591;28;20542;-74
2023/04/12 02:32:45;;;;;;;4.00;2.33;;;3.10;99.90;;;;;;4169588;28;20469;-74
2023/04/12 02:34:50;;;;;;;4.33;2.50;;;3.10;99.90;;;;;;4167318;28;20943;-74
2023/04/12 02:36:52;;;;;;;3.83;2.40;;;3.10;99.90;;;;;;4172408;28;20480;-74
2023/04/12 02:38:54;;;;;;;5.47;2.37;;;3.10;99.90;;;;;;4173923;28;20988;-75
2023/04/12 02:40:56;;;;;;;3.60;1.90;;;3.10;99.90;;;;;;4172918;28;21014;-74
2023/04/12 02:42:58;;;;;;;6.23;2.23;;;3.10;99.90;;;;;;4173785;28;20452;-74
2023/04/12 02:45:02;;;;;;;5.30;2.87;;;3.10;99.90;;;;;;4171385;28;20461;-74
2023/04/12 02:47:04;;;;;;;5.57;2.77;;;3.00;99.90;;;;;;4172595;28;20461;-74
2023/04/12 02:49:06;;;;;;;5.23;2.50;;;3.10;99.90;;;;;;4175551;28;20456;-75
2023/04/12 02:51:09;;;;;;;3.27;2.03;;;3.10;99.90;;;;;;4171997;28;20457;-74
2023/04/12 02:53:11;;;;;;;5.67;2.20;;;3.10;99.90;;;;;;4172177;28;21374;-74
2023/04/12 02:55:16;;;;;;;7.43;2.60;;;3.10;99.90;;;;;;4173949;28;20920;-75
2023/04/12 02:57:19;;;;;;;4.43;2.10;;;3.10;99.90;;;;;;4174334;28;20464;-74
2023/04/12 02:59:21;;;;;;;2.70;1.97;;;3.10;99.90;;;;;;4174145;28;20495;-75
2023/04/12 03:01:23;;;;;;;4.57;1.90;;;3.10;99.90;;;;;;4166854;28;20454;-74
2023/04/12 03:03:27;;;;;;;4.43;1.90;;;3.10;99.90;;;;;;4174130;28;20487;-74
2023/04/12 03:05:29;;;;;;;5.50;2.17;;;3.20;99.90;;;;;;4171462;28;20514;-75
2023/04/12 03:07:35;;;;;;;4.07;2.00;;;3.10;99.90;;;;;;4172313;28;20567;-74
2023/04/12 03:09:37;;;;;;;4.17;1.93;;;3.20;99.90;;;;;;4173163;28;20498;-75
2023/04/12 03:11:39;;;;;;;2.93;1.63;;;3.20;99.90;;;;;;4170147;28;20445;-74
2023/04/12 03:13:41;;;;;;;4.00;1.90;;;3.20;99.90;;;;;;4171262;28;20543;-75
2023/04/12 03:15:43;;;;;;;4.20;2.00;;;3.20;99.90;;;;;;4172594;28;20457;-73
2023/04/12 03:17:45;;;;;;;2.50;1.80;;;3.20;99.90;;;;;;4174207;28;20477;-75
2023/04/12 03:19:48;;;;;;;2.73;1.90;;;3.20;99.90;;;;;;4173981;28;20489;-75
2023/04/12 03:21:51;;;;;;;4.43;2.10;;;3.20;99.90;;;;;;4175382;28;20552;-75
2023/04/12 03:23:54;;;;;;;4.43;1.83;;;3.20;99.90;;;;;;4173931;28;20472;-74
2023/04/12 03:25:56;;;;;;;4.57;2.10;;;3.20;99.90;;;;;;4176651;28;20454;-74
2023/04/12 03:27:58;;;;;;;3.27;1.90;;;3.30;99.90;;;;;;4173001;28;20563;-74
2023/04/12 03:30:00;;;;;;;3.97;2.10;;;3.30;99.90;;;;;;4174662;28;20451;-74
2023/04/12 03:32:02;;;;;;;6.07;2.40;;;3.20;99.90;;;;;;4177851;28;20476;-74
2023/04/12 03:34:05;;;;;;;5.77;2.40;;;3.30;99.90;;;;;;4170306;28;20543;-75
2023/04/12 03:36:08;;;;;;;3.90;2.30;;;3.30;99.90;;;;;;4172796;28;20449;-75
2023/04/12 03:38:10;;;;;;;4.17;2.40;;;3.30;99.90;;;;;;4173406;28;21083;-74
2023/04/12 03:40:14;;;;;;;4.27;2.30;;;3.30;99.90;;;;;;4173223;28;21192;-75
2023/04/12 03:42:16;;;;;;;6.37;2.37;;;3.30;99.90;;;;;;4171760;28;20548;-75
2023/04/12 03:44:18;;;;;;;7.80;2.57;;;3.30;99.90;;;;;;4173642;28;20534;-75
2023/04/12 03:46:20;;;;;;;4.50;2.40;;;3.30;99.90;;;;;;4171892;28;20485;-75
2023/04/12 03:48:22;;;;;;;3.40;2.10;;;3.30;99.90;;;;;;4172030;28;20481;-74
2023/04/12 03:50:24;;;;;;;3.33;2.30;;;3.30;99.90;;;;;;4170813;28;20453;-74
2023/04/12 03:52:26;;;;;;;5.27;2.57;;;3.30;99.90;;;;;;4171648;28;20532;-74
2023/04/12 03:54:28;;;;;;;5.67;2.33;;;3.30;99.90;;;;;;4169792;28;20488;-75
2023/04/12 03:56:31;;;;;;;3.37;2.30;;;3.40;99.90;;;;;;4172645;28;20489;-75
2023/04/12 03:58:33;;;;;;;3.00;2.00;;;3.30;99.90;;;;;;4173734;28;20488;-75
2023/04/12 04:00:35;;;;;;;5.63;2.80;;;3.30;99.90;;;;;;4174736;28;20456;-74
2023/04/12 04:02:37;;;;;;;6.40;2.73;;;3.30;99.90;;;;;;4176721;28;20784;-75
2023/04/12 04:04:39;;;;;;;5.43;3.00;;;3.30;99.90;;;;;;4173600;28;20460;-75
2023/04/12 04:06:41;;;;;;;4.47;2.20;;;3.30;99.90;;;;;;4172267;28;20503;-75
2023/04/12 04:08:43;;;;;;;4.97;2.60;;;3.40;99.90;;;;;;4170934;28;20453;-74
2023/04/12 04:10:46;;;;;;;5.37;2.23;;;3.40;99.90;;;;;;4172460;28;21096;-75
2023/04/12 04:12:49;;;;;;;3.43;2.27;;;3.40;99.90;;;;;;4172874;28;20507;-74
2023/04/12 04:14:51;;;;;;;5.27;2.40;;;3.30;99.90;;;;;;4172127;28;20896;-74
2023/04/12 04:16:54;;;;;;;4.67;2.40;;;3.40;99.90;;;;;;4174845;28;20875;-74
2023/04/12 04:18:56;;;;;;;3.70;2.10;;;3.40;99.90;;;;;;4173341;28;20483;-75
2023/04/12 04:20:58;;;;;;;4.03;2.13;;;3.40;99.90;;;;;;4170133;28;20484;-74
2023/04/12 04:23:00;;;;;;;4.37;2.20;;;3.40;99.90;;;;;;4171202;28;20448;-75
2023/04/12 04:25:02;;;;;;;6.30;2.30;;;3.30;99.90;;;;;;4172426;28;20440;-75
2023/04/12 04:27:05;;;;;;;5.93;2.30;;;3.50;99.90;;;;;;4173092;28;20507;-75
2023/04/12 04:29:08;;;;;;;4.23;2.20;;;3.40;99.90;;;;;;4169421;28;20485;-75
2023/04/12 04:31:11;;;;;;;4.23;2.30;;;3.40;99.90;;;;;;4173248;28;20974;-75
2023/04/12 04:33:14;;;;;;;8.80;2.23;;;3.40;99.90;;;;;;4174060;28;20491;-75
2023/04/12 04:35:16;;;;;;;5.70;2.07;;;3.40;99.90;;;;;;4175674;28;21465;-75
2023/04/12 04:37:18;;;;;;;7.27;2.40;;;3.40;99.90;;;;;;4174411;28;20508;-74
2023/04/12 04:39:20;;;;;;;5.77;2.00;;;3.50;99.90;;;;;;4173103;28;20474;-75
2023/04/12 04:41:23;;;;;;;5.63;2.23;;;3.50;99.90;;;;;;4173379;28;20484;-75
2023/04/12 04:43:29;;;;;;;5.83;2.27;;;3.50;99.90;;;;;;4168906;28;20441;-75
2023/04/12 04:45:32;;;;;;;4.77;2.73;;;3.50;99.90;;;;;;4175551;28;20970;-75
2023/04/12 04:47:35;;;;;;;5.43;2.00;;;3.60;99.90;;;;;;4171847;28;20534;-74
2023/04/12 04:49:37;;;;;;;4.23;1.90;;;3.60;99.90;;;;;;4175600;28;20445;-73
2023/04/12 04:51:39;;;;;;;5.23;1.97;;;3.60;99.90;;;;;;4178414;28;20556;-73
2023/04/12 04:53:41;;;;;;;3.73;1.87;;;3.70;99.90;;;;;;4175673;28;20471;-73
2023/04/12 04:55:43;;;;;;;3.37;1.80;;;3.70;99.90;;;;;;4174542;28;20542;-73
2023/04/12 04:57:45;;;;;;;5.67;2.10;;;3.70;99.90;;;;;;4175251;28;20484;-73
2023/04/12 04:59:47;;;;;;;5.07;2.03;;;3.70;99.90;;;;;;4176318;28;20476;-72
2023/04/12 05:01:52;;;;;;;5.23;2.33;;;3.70;99.90;;;;;;4175044;28;20462;-73
2023/04/12 05:03:54;;;;;;;4.97;2.07;;;3.80;99.90;;;;;;4176053;28;20445;-73
2023/04/12 05:05:57;;;;;;;6.67;2.27;;;3.80;99.90;;;;;;4177087;28;20452;-73
2023/04/12 05:07:59;;;;;;;5.37;2.10;;;3.80;99.90;;;;;;4171831;28;20480;-73
2023/04/12 05:10:00;;;;;;;4.20;2.10;;;3.90;99.90;;;;;;4177374;28;20475;-74
2023/04/12 05:12:02;;;;;;;3.47;1.90;;;4.00;99.90;;;;;;4175877;28;20813;-72
2023/04/12 05:14:04;;;;;;;6.63;2.20;;;3.90;99.90;;;;;;4175221;28;20526;-73
2023/04/12 05:16:07;;;;;;;3.73;2.13;;;3.90;99.90;;;;;;4176083;28;20445;-75
2023/04/12 05:18:11;;;;;;;6.13;2.37;;;4.00;99.90;;;;;;4176123;28;20493;-73
2023/04/12 05:20:13;;;;;;;6.03;2.40;;;4.00;99.90;;;;;;4177998;28;20528;-73
2023/04/12 05:22:19;;;;;;;9.67;2.60;;;4.00;99.90;;;;;;4177499;28;20488;-73
2023/04/12 05:24:22;;;;;;;4.07;2.30;;;4.40;99.90;;;;;;4175214;28;20981;-73
2023/04/12 05:26:24;;;;;;;3.87;2.33;;;4.10;99.90;;;;;;4174371;28;20442;-74
2023/04/12 05:28:26;;;;;;;4.37;2.60;;;4.10;99.90;;;;;;4175468;28;20538;-74
2023/04/12 05:30:30;;;;;;;4.77;2.40;;;4.10;99.90;;;;;;4185085;28;20451;-73
2023/04/12 05:32:32;;;;;;;6.93;3.00;;;4.10;99.90;;;;;;4184261;28;20451;-73
2023/04/12 05:34:36;;;;;;;5.73;2.90;;;4.20;99.90;;;;;;4181173;28;20906;-74
2023/04/12 05:36:37;;;;;;;5.87;2.80;;;4.20;99.90;;;;;;4178166;28;20464;-73
2023/04/12 05:38:39;;;;;;;5.03;2.97;;;4.30;99.90;;;;;;4179807;28;20529;-73
2023/04/12 05:40:43;;;;;;;7.13;2.17;;;4.30;99.90;;;;;;4176616;28;20465;-74
2023/04/12 05:42:45;;;;;;;8.13;2.60;;;4.30;99.90;;;;;;4184082;28;20457;-73
2023/04/12 05:44:49;;;;;;;4.80;2.10;;;4.40;99.90;;;;;;4181706;28;20955;-74
2023/04/12 05:46:51;;;;;;;4.97;2.07;;;4.40;99.90;;;;;;4177286;28;20508;-73
2023/04/12 05:48:53;;;;;;;4.23;1.87;;;4.40;99.90;;;;;;4178625;28;20458;-73
2023/04/12 05:50:57;;;;;;;4.23;1.83;;;4.50;99.90;;;;;;4176764;28;20967;-74
2023/04/12 05:53:00;;;;;;;2.80;1.67;;;4.50;99.90;;;;;;4170459;28;20464;-73
2023/04/12 05:55:02;;;;;;;3.07;1.83;;;4.60;99.90;;;;;;4171116;28;21967;-74
2023/04/12 05:57:04;;;;;;;4.37;1.80;;;4.60;99.90;;;;;;4173298;28;20585;-73
2023/04/12 05:59:06;;;;;;;3.43;1.73;;;4.60;99.90;;;;;;4174988;28;20459;-73
2023/04/12 06:01:08;;;;;;;4.47;1.77;;;4.70;99.90;;;;;;4173721;28;20508;-74
2023/04/12 06:03:10;;;;;;;3.10;1.67;;;4.70;99.90;;;;;;4172737;28;20468;-75
2023/04/12 06:05:12;;;;;;;4.10;1.90;;;4.70;99.90;;;;;;4174336;28;20515;-75
2023/04/12 06:07:16;;;;;;;4.70;1.90;;;4.80;99.90;;;;;;4173927;28;20492;-75
2023/04/12 06:09:18;;;;;;;3.47;1.80;;;4.80;99.90;;;;;;4173310;28;20464;-74
2023/04/12 06:11:20;;;;;;;3.20;1.70;;;4.80;99.90;;;;;;4177359;28;20450;-74
2023/04/12 06:13:22;;;;;;;5.27;1.80;;;4.80;99.90;;;;;;4172638;28;20460;-74
2023/04/12 06:15:25;;;;;;;3.77;1.70;;;4.90;99.90;;;;;;4168511;28;20487;-74
2023/04/12 06:17:27;;;;;;;4.43;1.53;;;4.90;99.90;;;;;;4175832;28;20477;-75
2023/04/12 06:19:29;;;;;;;4.40;1.80;;;4.90;99.90;;;;;;4170699;28;20908;-73
2023/04/12 06:21:30;;;;;;;5.27;1.83;;;5.00;99.90;;;;;;4170744;28;20501;-74
2023/04/12 06:23:34;;;;;;;3.43;1.70;;;5.00;99.90;;;;;;4173671;28;20456;-73
2023/04/12 06:25:36;;;;;;;5.30;1.80;;;5.00;99.90;;;;;;4173470;28;20463;-74
2023/04/12 06:27:37;;;;;;;6.07;1.90;;;5.10;99.90;;;;;;4171312;28;20565;-74
2023/04/12 06:29:39;;;;;;;4.30;1.80;;;5.10;99.90;;;;;;4172462;28;20457;-74
2023/04/12 06:31:41;;;;;;;3.07;1.53;;;5.10;99.90;;;;;;4172773;28;20486;-73
2023/04/12 06:33:43;;;;;;;5.33;1.60;;;5.10;99.90;;;;;;4169799;28;20463;-74
2023/04/12 06:35:45;;;;;;;6.37;1.90;;;5.20;99.90;;;;;;4172083;28;21450;-74
2023/04/12 06:37:47;;;;;;;4.90;2.00;;;5.20;99.90;;;;;;4173640;28;20502;-73
2023/04/12 06:39:51;;;;;;;4.57;1.80;;;5.20;99.90;;;;;;4173908;28;20547;-76
2023/04/12 06:41:54;;;;;;;2.67;1.70;;;5.20;99.90;;;;;;4171015;28;20450;-73
2023/04/12 06:43:56;;;;;;;3.03;1.50;;;5.30;99.90;;;;;;4178921;28;20964;-73
2023/04/12 06:45:58;;;;;;;5.60;1.73;;;5.30;99.90;;;;;;4175005;28;20451;-74
2023/04/12 06:48:00;;;;;;;3.73;1.83;;;5.30;99.90;;;;;;4176673;28;20481;-75
2023/04/12 06:50:05;;;;;;;3.53;1.60;;;5.30;99.90;;;;;;4175119;28;20467;-75
2023/04/12 06:52:07;;;;;;;3.27;1.73;;;5.30;99.90;;;;;;4176019;28;20517;-73
2023/04/12 06:54:09;;;;;;;6.03;1.87;;;5.40;99.90;;;;;;4170550;28;20455;-74
2023/04/12 06:56:13;;;;;;;5.03;1.70;;;5.40;99.90;;;;;;4172636;28;20522;-73
2023/04/12 06:58:14;;;;;;;5.57;1.90;;;5.40;99.90;;;;;;4174627;28;20471;-73
2023/04/12 07:00:17;;;;;;;4.67;1.80;;;5.50;99.90;;;;;;4174731;28;21056;-73
2023/04/12 07:02:19;;;;;;;4.83;1.63;;;5.60;99.90;;;;;;4176141;28;20594;-74
2023/04/12 07:04:21;;;;;;;3.87;1.87;;;5.60;99.90;;;;;;4172364;28;20443;-74
2023/04/12 07:06:23;;;;;;;4.27;1.80;;;5.70;99.90;;;;;;4175662;28;21256;-74
2023/04/12 07:08:25;;;;;;;4.13;1.73;;;5.80;99.90;;;;;;4173231;28;20471;-74
2023/04/12 07:10:26;;;;;;;4.17;1.60;;;5.80;99.90;;;;;;4175802;28;20443;-74
2023/04/12 07:12:30;;;;;;;4.30;1.80;;;5.90;99.90;;;;;;4176229;28;20486;-74
2023/04/12 07:14:32;;;;;;;5.30;2.00;;;5.90;99.90;;;;;;4174610;28;20586;-74
2023/04/12 07:16:34;;;;;;;3.87;1.53;;;6.00;99.90;;;;;;4172226;28;20479;-74
2023/04/12 07:18:36;;;;;;;6.50;1.70;;;6.10;99.90;;;;;;4177147;28;20495;-74
2023/04/12 07:20:37;;;;;;;3.83;1.77;;;6.20;99.90;;;;;;4175821;28;20576;-74
2023/04/12 07:22:39;;;;;;;5.30;2.00;;;6.30;99.90;;;;;;4175418;28;20532;-74
2023/04/12 07:24:41;;;;;;;10.90;2.03;;;6.30;99.90;;;;;;4174488;28;20990;-74
2023/04/12 07:26:45;;;;;;;4.37;1.63;;;6.40;99.90;;;;;;4173920;28;20449;-74
2023/04/12 07:28:48;;;;;;;4.33;1.60;;;6.50;99.90;;;;;;4171521;28;20456;-75
2023/04/12 07:30:50;;;;;;;3.67;1.50;;;6.50;99.90;;;;;;4175414;28;20914;-70
2023/04/12 07:32:52;;;;;;;6.60;1.60;;;6.60;99.90;;;;;;4169411;28;20460;-71
2023/04/12 07:34:54;;;;;;;6.17;1.60;;;6.60;99.90;;;;;;4176005;28;20544;-71
2023/04/12 07:36:56;;;;;;;2.30;1.47;;;6.60;99.90;;;;;;4174041;28;20958;-71
2023/04/12 07:38:58;;;;;;;6.23;1.80;;;6.70;99.90;;;;;;4173162;28;20459;-71
2023/04/12 07:41:00;;;;;;;3.77;1.40;;;6.80;99.90;;;;;;4175957;28;20452;-72
2023/04/12 07:43:02;;;;;;;3.87;1.60;;;6.90;99.90;;;;;;4171253;28;20450;-70
2023/04/12 07:45:06;;;;;;;3.70;1.60;;;6.90;99.90;;;;;;4171793;28;20548;-71
2023/04/12 07:47:08;;;;;;;5.20;1.97;;;7.00;99.90;;;;;;4173207;28;20491;-71
2023/04/12 07:49:10;;;;;;;6.27;1.90;;;7.10;99.90;;;;;;4166123;28;20471;-71
2023/04/12 07:51:12;;;;;;;8.50;1.93;;;7.10;99.90;;;;;;4173213;28;20548;-71
2023/04/12 07:53:22;;;;;;;7.00;2.57;;;7.10;99.90;;;;;;4174581;28;21044;-71
2023/04/12 07:55:24;;;;;;;6.63;2.50;;;7.30;99.90;;;;;;4178667;28;20535;-71
2023/04/12 07:57:26;;;;;;;6.57;2.50;;;7.40;99.90;;;;;;4177517;28;20515;-71
2023/04/12 07:59:29;;;;;;;9.27;2.50;;;7.50;99.90;;;;;;4175516;28;20448;-71
2023/04/12 08:01:32;;;;;;;10.37;2.77;;;7.60;99.90;;;;;;4181808;28;20555;-71
2023/04/12 08:03:34;;;;;;;4.57;2.13;;;7.70;99.90;;;;;;4179290;28;20444;-71
2023/04/12 08:05:36;;;;;;;6.37;1.80;;;7.70;99.90;;;;;;4177344;28;20464;-72
2023/04/12 08:07:38;;;;;;;11.43;3.73;;;7.80;99.90;;;;;;4178148;28;20492;-71
2023/04/12 08:09:40;;;;;;;7.50;3.00;;;7.80;99.90;;;;;;4176321;28;20284;-72
2023/04/12 08:11:42;;;;;;;7.93;2.90;;;8.00;99.90;;;;;;4178978;28;20489;-71
2023/04/12 08:13:44;;;;;;;5.77;2.17;;;8.10;99.90;;;;;;4176073;28;20469;-71
2023/04/12 08:15:46;;;;;;;8.83;1.80;;;8.10;99.90;;;;;;4179038;28;20728;-72
2023/04/12 08:17:49;;;;;;;4.87;1.40;;;8.30;99.90;;;;;;4177977;28;20222;-72
2023/04/12 08:19:52;;;;;;;6.30;1.90;;;8.50;99.90;;;;;;4175788;28;20491;-72
2023/04/12 08:21:54;;;;;;;6.13;2.07;;;8.60;99.90;;;;;;4176762;28;20202;-72
2023/04/12 08:23:56;;;;;;;7.60;2.30;;;8.70;99.90;;;;;;4184213;28;20199;-72
2023/04/12 08:26:02;;;;;;;6.03;2.37;;;8.90;99.90;;;;;;4176020;28;20749;-72
2023/04/12 08:28:06;;;;;;;5.50;1.70;;;9.00;99.90;;;;;;4174730;28;20228;-72
2023/04/12 08:30:09;;;;;;;9.23;1.50;;;9.20;99.90;;;;;;4177922;28;20234;-72
2023/04/12 08:32:11;;;;;;;9.30;2.10;;;9.30;99.90;;;;;;4175999;28;20209;-72
2023/04/12 08:34:14;;;;;;;6.37;1.77;;;9.30;99.90;;;;;;4179283;28;20210;-72
2023/04/12 08:36:16;;;;;;;5.13;1.83;;;9.50;99.90;;;;;;4180138;28;20223;-71
2023/04/12 08:38:18;;;;;;;5.77;1.73;;;9.60;99.90;;;;;;4178656;28;20224;-72
2023/04/12 08:40:21;;;;;;;3.87;1.40;;;9.70;99.90;;;;;;4175019;28;20214;-71
2023/04/12 08:42:23;;;;;;;4.83;1.40;;;9.80;99.90;;;;;;4176508;28;20213;-72
2023/04/12 08:44:35;;;;;;;4.57;1.73;;;9.80;99.90;;;;;;4177206;28;20295;-72
2023/04/12 08:46:37;;;;;;;5.23;1.60;;;9.90;99.90;;;;;;4179635;28;20685;-72
2023/04/12 08:48:42;;;;;;;4.07;1.63;;;10.00;99.90;;;;;;4178609;28;20219;-71
2023/04/12 08:50:47;;;;;;;5.37;1.77;;;10.10;99.90;;;;;;4176814;28;20260;-71
2023/04/12 08:52:50;;;;;;;5.43;1.67;;;10.30;99.90;;;;;;4177388;28;20221;-72
2023/04/12 08:54:52;;;;;;;3.97;1.87;;;10.30;99.90;;;;;;4180197;28;20675;-77
2023/04/12 08:56:56;;;;;;;5.13;1.90;;;10.40;99.90;;;;;;4179851;28;20278;-76
2023/04/12 08:59:00;;;;;;;6.30;1.80;;;10.50;99.90;;;;;;4182777;28;20293;-71
2023/04/12 09:01:02;;;;;;;5.20;1.60;;;10.70;99.90;;;;;;4179224;28;20292;-71
2023/04/12 09:03:05;;;;;;;4.60;1.47;;;10.80;99.90;;;;;;4182207;28;20676;-71
2023/04/12 09:05:08;;;;;;;3.87;1.60;;;10.90;99.90;;;;;;4180402;28;20699;-71
2023/04/12 09:07:11;;;;;;;3.57;1.40;;;11.00;99.90;;;;;;4172874;28;20289;-71
2023/04/12 09:09:13;;;;;;;3.40;1.40;;;11.10;99.90;;;;;;4176422;28;20206;-72
2023/04/12 09:11:25;;;;;;;5.53;1.40;;;11.20;99.90;;;;;;4179677;28;20213;-71
2023/04/12 09:13:35;;;;;;;9.23;1.70;;;11.20;99.90;;;;;;4180356;28;20252;-70
2023/04/12 09:15:48;;;;;;;6.63;1.30;;;11.40;99.90;;;;;;4174289;28;20217;-70
2023/04/12 09:18:04;;;;;;;8.77;1.70;;;11.50;99.90;;;;;;4178699;28;20332;-72
2023/04/12 09:20:24;;;;;;;7.03;1.33;;;11.50;99.90;;;;;;4176696;28;20244;-72
2023/04/12 09:22:38;;;;;;;7.00;1.50;;;11.50;99.90;;;;;;4176831;28;20225;-72
2023/04/12 09:24:47;;;;;;;6.37;1.13;;;11.60;99.90;;;;;;4173728;28;20214;-72
2023/04/12 09:26:49;;;;;;;4.17;1.50;;;11.60;99.90;;;;;;4175798;28;20245;-72
2023/04/12 09:28:51;;;;;;;6.00;1.27;;;11.70;99.90;;;;;;4175924;28;20233;-72
2023/04/12 09:30:53;;;;;;;6.03;1.33;;;11.80;99.90;;;;;;4174106;28;20198;-73
2023/04/12 09:32:55;;;;;;;7.53;1.40;;;11.80;99.90;;;;;;4179941;28;20252;-72
2023/04/12 09:35:01;;;;;;;4.67;1.40;;;11.80;99.90;;;;;;4178069;28;20885;-72
2023/04/12 09:37:13;;;;;;;6.10;1.03;;;11.80;99.90;;;;;;4177311;28;20233;-73
2023/04/12 09:39:16;;;;;;;7.13;1.30;;;11.90;99.90;;;;;;4175108;28;20209;-73
2023/04/12 09:41:21;;;;;;;4.13;1.20;;;12.00;99.90;;;;;;4171026;28;20248;-73
2023/04/12 09:43:37;;;;;;;7.77;1.60;;;12.00;99.90;;;;;;4174351;28;20205;-73
2023/04/12 09:45:39;;;;;;;5.97;1.40;;;12.10;99.90;;;;;;4185630;28;20214;-71
2023/04/12 09:47:41;;;;;;;7.03;1.37;;;12.20;99.90;;;;;;4173193;28;20230;-72
2023/04/12 09:49:44;;;;;;;4.90;1.53;;;12.20;99.90;;;;;;4176947;28;20469;-72
2023/04/12 09:51:51;;;;;;;6.07;1.17;;;12.30;99.90;;;;;;4174139;28;20238;-71
2023/04/12 09:53:55;;;;;;;5.80;1.30;;;12.30;99.90;;;;;;4174802;28;20237;-70
2023/04/12 09:56:00;;;;;;;6.43;1.73;;;12.40;99.90;;;;;;4174408;28;20230;-71
2023/04/12 09:58:04;;;;;;;4.80;1.43;;;12.40;99.90;;;;;;4178889;28;20303;-71
2023/04/12 10:00:11;;;;;;;2.77;1.17;;;12.50;99.90;;;;;;4173910;28;20203;-70
2023/04/12 10:02:16;;;;;;;6.93;1.03;;;12.60;99.90;;;;;;4172978;28;20204;-77
2023/04/12 10:04:19;;;;;;;6.10;1.27;;;12.60;99.90;;;;;;4176301;28;20210;-70
2023/04/12 10:06:22;;;;;;;8.60;1.60;;;12.60;99.90;;;;;;4175694;28;20266;-72
2023/04/12 10:08:25;;;;;;;7.07;1.50;;;12.70;99.90;;;;;;4171838;28;20827;-73
2023/04/12 10:10:27;;;;;;;5.00;1.53;;;12.80;99.90;;;;;;4173743;28;20226;-71
2023/04/12 10:12:30;;;;;;;3.43;1.17;;;12.80;99.90;;;;;;4175792;28;20599;-71
2023/04/12 10:14:32;;;;;;;5.73;1.40;;;12.90;99.90;;;;;;4173197;28;20231;-71
2023/04/12 10:16:35;;;;;;;6.27;1.40;;;13.00;99.90;;;;;;4171035;28;20254;-71
2023/04/12 10:18:37;;;;;;;2.23;1.10;;;13.10;99.90;;;;;;4175900;28;20211;-72
2023/04/12 10:20:41;;;;;;;3.13;1.00;;;13.20;99.90;;;;;;4177766;28;20209;-71
2023/04/12 10:22:44;;;;;;;2.43;1.00;;;13.30;99.90;;;;;;4174180;28;20746;-71
2023/04/12 10:24:47;;;;;;;4.23;1.03;;;13.30;99.90;;;;;;4175216;28;20694;-72
2023/04/12 10:26:50;;;;;;;5.07;1.30;;;13.30;99.90;;;;;;4173446;28;20263;-71
2023/04/12 10:29:24;;;;;;;4.77;1.30;;;13.40;99.90;;;;;;4173238;28;20240;-71
2023/04/12 10:31:29;;;;;;;5.40;1.40;;;13.40;99.90;;;;;;4170775;28;20588;-71
2023/04/12 10:33:31;;;;;;;3.40;1.00;;;13.40;99.90;;;;;;4173078;28;20572;-71
2023/04/12 10:35:49;;;;;;;4.20;1.30;;;13.40;99.90;;;;;;4172929;28;20221;-72
2023/04/12 10:37:58;;;;;;;6.27;1.20;;;13.40;99.90;;;;;;4167215;28;20226;-70
2023/04/12 10:40:03;;;;;;;4.57;1.33;;;13.40;99.90;;;;;;4172797;28;20207;-71
2023/04/12 10:42:21;;;;;;;5.53;1.50;;;13.40;99.90;;;;;;4172448;28;20209;-71
2023/04/12 10:44:27;;;;;;;2.93;1.10;;;13.50;99.90;;;;;;4173952;28;20210;-69
2023/04/12 10:46:48;;;;;;;3.43;1.33;;;13.50;99.90;;;;;;4174287;28;20235;-71
2023/04/12 10:48:52;;;;;;;3.10;1.37;;;13.50;99.90;;;;;;4169670;28;20336;-71
2023/04/12 10:51:12;;;;;;;9.30;1.47;;;13.50;99.90;;;;;;4172665;28;20268;-72